Time;durP1;ratioP1;P1;durP2;ratioP2;P2;SDS_P1;SDS_P2;PMS_P1;PMS_P2;Temp;Humidity;BMP_temperature;BMP_pressure;BME280_temperature;BME280_humidity;BME280_pressure;Samples;Min_cycle;Max_cycle;Signal;HPM_P1;HPM_P2
2023/02/25 00:01:39;;;;;;;12.20;6.93;;;4.20;99.90;;;;;;5007214;28;20175;-59
2023/02/25 00:04:04;;;;;;;16.67;7.70;;;4.20;99.90;;;;;;5009488;28;20234;-59
2023/02/25 00:06:30;;;;;;;15.27;7.30;;;4.10;99.90;;;;;;5024536;28;20188;-58
2023/02/25 00:08:56;;;;;;;16.57;7.60;;;4.10;99.90;;;;;;5002370;28;20177;-60
2023/02/25 00:11:23;;;;;;;13.03;6.87;;;4.10;99.90;;;;;;5004998;28;20230;-59
2023/02/25 00:13:49;;;;;;;13.57;7.13;;;4.00;99.90;;;;;;5008989;28;20307;-59
2023/02/25 00:16:16;;;;;;;14.10;7.30;;;4.00;99.90;;;;;;5001550;28;20510;-59
2023/02/25 00:18:45;;;;;;;13.37;7.67;;;4.00;99.90;;;;;;5012146;28;20208;-60
2023/02/25 00:21:14;;;;;;;16.40;8.30;;;4.00;99.90;;;;;;5006373;28;20430;-59
2023/02/25 00:23:41;;;;;;;16.63;7.40;;;4.00;99.90;;;;;;5008197;28;20921;-59
2023/02/25 00:26:07;;;;;;;17.27;8.40;;;4.00;99.90;;;;;;5003133;28;20427;-59
2023/02/25 00:28:34;;;;;;;15.20;7.97;;;4.00;99.90;;;;;;5008669;28;20526;-58
2023/02/25 00:30:59;;;;;;;17.90;7.70;;;4.00;99.90;;;;;;5003960;28;20436;-59
2023/02/25 00:33:25;;;;;;;18.27;8.00;;;4.00;99.90;;;;;;5001791;28;20532;-58
2023/02/25 00:35:51;;;;;;;17.77;7.93;;;4.00;99.90;;;;;;5007139;28;20177;-58
2023/02/25 00:38:17;;;;;;;15.77;7.60;;;4.00;99.90;;;;;;5010169;28;20229;-58
2023/02/25 00:40:43;;;;;;;15.20;8.00;;;4.00;99.90;;;;;;5007439;28;20431;-59
2023/02/25 00:43:08;;;;;;;15.90;7.73;;;4.00;99.90;;;;;;5008074;28;20215;-59
2023/02/25 00:45:34;;;;;;;17.13;8.73;;;4.00;99.90;;;;;;5007330;28;20533;-58
2023/02/25 00:48:00;;;;;;;14.97;8.03;;;4.10;99.90;;;;;;5008579;28;20184;-58
2023/02/25 00:50:25;;;;;;;13.37;7.57;;;4.10;99.90;;;;;;5004250;28;20544;-59
2023/02/25 00:52:51;;;;;;;12.50;7.03;;;4.10;99.90;;;;;;5009158;28;20228;-59
2023/02/25 00:55:17;;;;;;;17.13;8.20;;;4.10;99.90;;;;;;5005675;28;20187;-60
2023/02/25 00:57:42;;;;;;;14.87;7.93;;;4.10;99.90;;;;;;5007828;28;20172;-58
2023/02/25 01:00:14;;;;;;;15.20;7.13;;;4.10;99.90;;;;;;5006365;28;20200;-58
2023/02/25 01:02:44;;;;;;;12.50;7.30;;;4.10;99.90;;;;;;4999375;28;20204;-59
2023/02/25 01:05:11;;;;;;;15.27;7.83;;;4.10;99.90;;;;;;5007663;28;20431;-59
2023/02/25 01:07:37;;;;;;;14.47;7.30;;;4.10;99.90;;;;;;4999496;28;20434;-59
2023/02/25 01:10:03;;;;;;;14.10;7.53;;;4.10;99.90;;;;;;5011132;28;20443;-59
2023/02/25 01:12:28;;;;;;;15.83;7.97;;;4.10;99.90;;;;;;5005243;28;20513;-59
2023/02/25 01:14:55;;;;;;;15.00;7.50;;;4.20;99.90;;;;;;5007598;28;20939;-59
2023/02/25 01:17:21;;;;;;;12.93;7.07;;;4.20;99.90;;;;;;5009182;28;20183;-59
2023/02/25 01:19:47;;;;;;;14.50;7.20;;;4.10;99.90;;;;;;5007510;28;20455;-58
2023/02/25 01:22:12;;;;;;;11.37;6.57;;;4.10;99.90;;;;;;5005320;28;20175;-60
2023/02/25 01:24:38;;;;;;;10.10;6.00;;;4.10;99.90;;;;;;5007079;28;20464;-59
2023/02/25 01:27:04;;;;;;;12.77;6.93;;;4.10;99.90;;;;;;5007461;28;20673;-58
2023/02/25 01:29:39;;;;;;;11.40;5.90;;;4.10;99.90;;;;;;5007289;28;20191;-58
2023/02/25 01:32:07;;;;;;;13.50;5.70;;;4.10;99.90;;;;;;5005703;28;20176;-61
2023/02/25 01:34:33;;;;;;;8.47;5.60;;;4.10;99.90;;;;;;5004489;28;21046;-59
2023/02/25 01:36:59;;;;;;;12.30;6.43;;;4.10;99.90;;;;;;5009258;28;20425;-59
2023/02/25 01:39:26;;;;;;;12.77;6.50;;;4.00;99.90;;;;;;5001111;28;20459;-59
2023/02/25 01:41:54;;;;;;;10.97;6.40;;;4.00;99.90;;;;;;5004882;28;20176;-59
2023/02/25 01:44:21;;;;;;;12.53;7.27;;;4.00;99.90;;;;;;5008299;28;20534;-59
2023/02/25 01:46:52;;;;;;;10.37;5.87;;;4.00;99.90;;;;;;5006958;28;20801;-59
2023/02/25 01:49:33;;;;;;;8.67;5.60;;;3.90;99.90;;;;;;5002439;28;20446;-58
2023/02/25 01:52:07;;;;;;;14.37;7.13;;;3.90;99.90;;;;;;5003492;28;20427;-58
2023/02/25 01:54:35;;;;;;;10.30;6.63;;;3.90;99.90;;;;;;5006178;28;20453;-61
2023/02/25 01:57:04;;;;;;;9.53;6.27;;;3.90;99.90;;;;;;5001123;28;20522;-58
2023/02/25 01:59:30;;;;;;;12.23;6.87;;;3.90;99.90;;;;;;5010301;28;20520;-59
2023/02/25 02:01:56;;;;;;;12.10;7.40;;;3.90;99.90;;;;;;5005129;28;21165;-59
2023/02/25 02:04:23;;;;;;;13.23;7.70;;;3.90;99.90;;;;;;5008541;28;21120;-58
2023/02/25 02:06:50;;;;;;;13.60;7.53;;;3.90;99.90;;;;;;5008513;28;20423;-57
2023/02/25 02:09:22;;;;;;;17.90;7.00;;;3.90;99.90;;;;;;5008680;28;20473;-59
2023/02/25 02:11:48;;;;;;;11.90;6.53;;;3.90;99.90;;;;;;5009374;28;20451;-58
2023/02/25 02:14:19;;;;;;;10.90;7.27;;;3.90;99.90;;;;;;5007531;28;21042;-58
2023/02/25 02:17:16;;;;;;;14.63;7.07;;;3.90;99.90;;;;;;5008400;28;20249;-59
2023/02/25 02:19:50;;;;;;;15.67;8.53;;;3.90;99.90;;;;;;5006399;28;20464;-60
2023/02/25 02:22:37;;;;;;;17.13;7.60;;;3.90;99.90;;;;;;5005793;28;20423;-60
2023/02/25 02:25:11;;;;;;;14.00;8.00;;;3.90;99.90;;;;;;5006298;28;20431;-60
2023/02/25 02:28:04;;;;;;;12.23;7.33;;;3.90;99.90;;;;;;5002333;28;20535;-60
2023/02/25 02:30:38;;;;;;;14.33;7.93;;;3.90;99.90;;;;;;5003160;28;20463;-60
2023/02/25 02:33:11;;;;;;;15.07;8.87;;;3.90;99.90;;;;;;5003549;28;20446;-60
2023/02/25 02:36:12;;;;;;;14.67;8.77;;;3.90;99.90;;;;;;5005105;28;20423;-60
2023/02/25 02:39:15;;;;;;;15.00;8.90;;;3.90;99.90;;;;;;4984773;28;20806;-60
2023/02/25 02:41:46;;;;;;;13.20;8.93;;;3.90;99.90;;;;;;4993972;28;20451;-60
2023/02/25 02:44:23;;;;;;;15.97;8.80;;;3.90;99.90;;;;;;5002424;28;20443;-59
2023/02/25 02:47:11;;;;;;;17.03;9.10;;;3.90;99.90;;;;;;5006467;28;20453;-62
2023/02/25 02:49:48;;;;;;;16.10;9.17;;;3.90;99.90;;;;;;5002368;28;21020;-60
2023/02/25 02:52:20;;;;;;;15.23;8.80;;;3.90;99.90;;;;;;4999255;28;20811;-60
2023/02/25 02:55:00;;;;;;;16.53;8.70;;;3.90;99.90;;;;;;5003524;28;20435;-61
2023/02/25 02:57:29;;;;;;;12.10;8.77;;;3.80;99.90;;;;;;5001567;28;20431;-60
2023/02/25 02:59:59;;;;;;;15.83;8.40;;;3.80;99.90;;;;;;5003542;28;20802;-61
2023/02/25 03:02:34;;;;;;;15.30;8.97;;;3.80;99.90;;;;;;5002533;28;20437;-60
2023/02/25 03:05:06;;;;;;;12.33;7.57;;;3.80;99.90;;;;;;5004947;28;20791;-60
2023/02/25 03:07:37;;;;;;;15.30;8.40;;;3.80;99.90;;;;;;5003304;28;20441;-59
2023/02/25 03:10:05;;;;;;;13.57;8.40;;;3.80;99.90;;;;;;5000324;28;20443;-60
2023/02/25 03:12:32;;;;;;;16.17;8.53;;;3.80;99.90;;;;;;5003094;28;20443;-60
2023/02/25 03:14:58;;;;;;;15.77;8.53;;;3.80;99.90;;;;;;5006109;28;20420;-61
2023/02/25 03:17:31;;;;;;;13.60;8.33;;;3.80;99.90;;;;;;5004095;28;20992;-60
2023/02/25 03:20:09;;;;;;;13.83;8.73;;;3.80;99.90;;;;;;5001584;28;20228;-60
2023/02/25 03:22:38;;;;;;;13.23;8.17;;;3.70;99.90;;;;;;5001715;28;20445;-60
2023/02/25 03:25:17;;;;;;;14.70;8.93;;;3.70;99.90;;;;;;5003458;28;20475;-60
2023/02/25 03:27:44;;;;;;;13.47;8.23;;;3.70;99.90;;;;;;4995428;28;20534;-62
2023/02/25 03:30:36;;;;;;;16.60;8.53;;;3.70;99.90;;;;;;4991415;28;22782;-61
2023/02/25 03:33:13;;;;;;;18.60;8.87;;;3.70;99.90;;;;;;4987469;28;20454;-62
2023/02/25 03:35:40;;;;;;;13.20;8.40;;;3.70;99.90;;;;;;4992249;28;21466;-60
2023/02/25 03:38:13;;;;;;;13.27;8.80;;;3.70;99.90;;;;;;4992235;28;20513;-60
2023/02/25 03:40:41;;;;;;;20.03;8.37;;;3.70;99.90;;;;;;4989745;28;20525;-60
2023/02/25 03:43:14;;;;;;;15.17;8.50;;;3.70;99.90;;;;;;4989927;28;20450;-60
2023/02/25 03:45:42;;;;;;;12.83;8.40;;;3.70;99.90;;;;;;4990852;28;20485;-61
2023/02/25 03:48:09;;;;;;;14.80;8.50;;;3.70;99.90;;;;;;5001383;28;20446;-61
2023/02/25 03:50:42;;;;;;;22.00;9.17;;;3.70;99.90;;;;;;5008901;28;20447;-60
2023/02/25 03:53:08;;;;;;;15.90;9.23;;;3.70;99.90;;;;;;5010228;28;20892;-60
2023/02/25 03:55:33;;;;;;;17.43;9.33;;;3.70;99.90;;;;;;5010889;28;20445;-60
2023/02/25 03:57:59;;;;;;;14.30;8.60;;;3.70;99.90;;;;;;4994478;28;20208;-61
2023/02/25 04:00:28;;;;;;;13.60;7.90;;;3.70;99.90;;;;;;5006363;28;20180;-61
2023/02/25 04:02:54;;;;;;;16.77;8.73;;;3.70;99.90;;;;;;5009544;28;20463;-60
2023/02/25 04:05:21;;;;;;;16.70;9.30;;;3.70;99.90;;;;;;5007164;28;20513;-59
2023/02/25 04:07:47;;;;;;;15.87;8.40;;;3.70;99.90;;;;;;5006292;28;20419;-60
2023/02/25 04:10:15;;;;;;;14.27;9.30;;;3.70;99.90;;;;;;5011536;28;20414;-60
2023/02/25 04:12:41;;;;;;;16.20;8.67;;;3.70;99.90;;;;;;5009140;28;20459;-60
2023/02/25 04:15:07;;;;;;;12.57;8.83;;;3.80;99.90;;;;;;5009071;28;21185;-60
2023/02/25 04:17:34;;;;;;;13.37;8.80;;;3.80;99.90;;;;;;5011613;28;21075;-60
2023/02/25 04:19:59;;;;;;;16.00;8.90;;;3.80;99.90;;;;;;4995266;28;20467;-60
2023/02/25 04:22:25;;;;;;;16.60;8.60;;;3.80;99.90;;;;;;4991961;28;20439;-61
2023/02/25 04:24:51;;;;;;;16.57;8.70;;;3.80;99.90;;;;;;4992736;28;20271;-62
2023/02/25 04:27:16;;;;;;;19.50;9.47;;;3.70;99.90;;;;;;4997033;28;20179;-60
2023/02/25 04:29:43;;;;;;;14.53;8.30;;;3.70;99.90;;;;;;4989197;28;20196;-61
2023/02/25 04:32:09;;;;;;;19.73;9.63;;;3.70;99.90;;;;;;4993157;28;20187;-62
2023/02/25 04:34:35;;;;;;;24.77;9.50;;;3.70;99.90;;;;;;5006838;28;20459;-60
2023/02/25 04:37:03;;;;;;;13.10;8.40;;;3.60;99.90;;;;;;5007119;28;20907;-60
2023/02/25 04:39:30;;;;;;;17.03;8.27;;;3.60;99.90;;;;;;5011795;28;20219;-60
2023/02/25 04:41:56;;;;;;;16.07;8.80;;;3.60;99.90;;;;;;5007729;28;20845;-61
2023/02/25 04:44:21;;;;;;;14.90;8.50;;;3.60;99.90;;;;;;5008717;28;20451;-60
2023/02/25 04:46:50;;;;;;;18.03;9.50;;;3.50;99.90;;;;;;5002090;28;20662;-60
2023/02/25 04:49:18;;;;;;;13.30;9.00;;;3.50;99.90;;;;;;5008643;28;20652;-61
2023/02/25 04:51:44;;;;;;;15.10;8.83;;;3.50;99.90;;;;;;5019291;28;20440;-60
2023/02/25 04:54:10;;;;;;;17.13;8.70;;;3.50;99.90;;;;;;5007868;28;20466;-60
2023/02/25 04:56:37;;;;;;;18.27;8.90;;;3.50;99.90;;;;;;5008384;28;20189;-60
2023/02/25 04:59:03;;;;;;;18.20;9.37;;;3.60;99.90;;;;;;5007816;28;20465;-60
2023/02/25 05:01:30;;;;;;;16.33;8.90;;;3.50;99.90;;;;;;4996697;28;20470;-61
2023/02/25 05:03:57;;;;;;;17.80;8.80;;;3.60;99.90;;;;;;5003038;28;20454;-60
2023/02/25 05:06:24;;;;;;;14.17;7.97;;;3.60;99.90;;;;;;5007159;28;20579;-59
2023/02/25 05:08:49;;;;;;;14.70;8.63;;;3.60;99.90;;;;;;5007065;28;20510;-61
2023/02/25 05:11:16;;;;;;;17.43;9.17;;;3.50;99.90;;;;;;5005112;28;21010;-61
2023/02/25 05:13:42;;;;;;;16.07;8.37;;;3.50;99.90;;;;;;5005806;28;20227;-59
2023/02/25 05:16:12;;;;;;;15.57;8.50;;;3.50;99.90;;;;;;5003532;28;20807;-61
2023/02/25 05:18:40;;;;;;;14.10;8.10;;;3.60;99.90;;;;;;5011016;28;20204;-60
2023/02/25 05:21:15;;;;;;;17.43;9.30;;;3.60;99.90;;;;;;4995104;28;20419;-62
2023/02/25 05:23:42;;;;;;;18.97;9.83;;;3.60;99.90;;;;;;5007726;28;20439;-60
2023/02/25 05:26:09;;;;;;;16.50;10.17;;;3.50;99.90;;;;;;5006384;28;20427;-61
2023/02/25 05:28:35;;;;;;;20.47;9.87;;;3.60;99.90;;;;;;5005955;28;20567;-60
2023/02/25 05:31:05;;;;;;;16.80;9.20;;;3.60;99.90;;;;;;5006051;28;20485;-60
2023/02/25 05:33:31;;;;;;;16.27;8.90;;;3.50;99.90;;;;;;5008302;28;20442;-60
2023/02/25 05:35:57;;;;;;;18.10;9.03;;;3.50;99.90;;;;;;5005019;28;20438;-60
2023/02/25 05:38:22;;;;;;;19.50;9.67;;;3.50;99.90;;;;;;5008306;28;20560;-60
2023/02/25 05:40:48;;;;;;;16.20;9.33;;;3.50;99.90;;;;;;5005941;28;20172;-61
2023/02/25 05:43:14;;;;;;;19.27;9.60;;;3.40;99.90;;;;;;5008672;28;20695;-61
2023/02/25 05:45:39;;;;;;;16.97;9.53;;;3.40;99.90;;;;;;5005163;28;20177;-61
2023/02/25 05:48:05;;;;;;;16.93;8.80;;;3.40;99.90;;;;;;5006669;28;20189;-60
2023/02/25 05:50:33;;;;;;;18.60;9.83;;;3.40;99.90;;;;;;5003397;28;20192;-62
2023/02/25 05:52:59;;;;;;;13.73;8.77;;;3.40;99.90;;;;;;5004936;28;20204;-60
2023/02/25 05:55:25;;;;;;;14.90;8.70;;;3.40;99.90;;;;;;5006214;28;20493;-63
2023/02/25 05:57:51;;;;;;;16.67;8.50;;;3.40;99.90;;;;;;5004962;28;20543;-61
2023/02/25 06:00:20;;;;;;;14.00;8.70;;;3.40;99.90;;;;;;5006051;28;20555;-61
2023/02/25 06:02:46;;;;;;;14.23;7.90;;;3.40;99.90;;;;;;5006589;28;20199;-59
2023/02/25 06:05:12;;;;;;;17.63;8.90;;;3.40;99.90;;;;;;5006263;28;20463;-60
2023/02/25 06:07:37;;;;;;;15.77;8.70;;;3.40;99.90;;;;;;5002610;28;20455;-60
2023/02/25 06:10:05;;;;;;;12.80;7.60;;;3.40;99.90;;;;;;5010058;28;20305;-61
2023/02/25 06:12:32;;;;;;;18.30;8.37;;;3.40;99.90;;;;;;5002058;28;20447;-61
2023/02/25 06:14:58;;;;;;;16.20;8.57;;;3.40;99.90;;;;;;5006123;28;20972;-60
2023/02/25 06:17:24;;;;;;;13.17;8.17;;;3.30;99.90;;;;;;5007279;28;21148;-60
2023/02/25 06:19:51;;;;;;;16.77;9.60;;;3.30;99.90;;;;;;5005364;28;20560;-60
2023/02/25 06:22:18;;;;;;;18.17;8.83;;;3.30;99.90;;;;;;5004059;28;20231;-62
2023/02/25 06:24:43;;;;;;;14.17;8.00;;;3.30;99.90;;;;;;5007798;28;20490;-60
2023/02/25 06:27:09;;;;;;;14.73;8.37;;;3.30;99.90;;;;;;5002222;28;20531;-60
2023/02/25 06:29:40;;;;;;;14.10;8.17;;;3.30;99.90;;;;;;5001326;28;20181;-59
2023/02/25 06:32:09;;;;;;;13.30;7.33;;;3.30;99.90;;;;;;5003965;28;20219;-60
2023/02/25 06:34:35;;;;;;;10.83;6.97;;;3.30;99.90;;;;;;5011669;28;20463;-61
2023/02/25 06:37:01;;;;;;;14.90;7.50;;;3.30;99.90;;;;;;5006397;28;20446;-60
2023/02/25 06:39:26;;;;;;;14.80;7.43;;;3.30;99.90;;;;;;5014178;28;20254;-61
2023/02/25 06:41:52;;;;;;;11.73;7.60;;;3.30;99.90;;;;;;5003801;28;20223;-61
2023/02/25 06:44:18;;;;;;;17.43;7.90;;;3.20;99.90;;;;;;5007178;28;20283;-60
2023/02/25 06:46:43;;;;;;;14.00;6.47;;;3.20;99.90;;;;;;5005340;28;20238;-60
2023/02/25 06:49:10;;;;;;;11.03;7.23;;;3.20;99.90;;;;;;5003181;28;20231;-60
2023/02/25 06:51:35;;;;;;;12.37;6.70;;;3.20;99.90;;;;;;5008293;28;20677;-60
2023/02/25 06:54:02;;;;;;;12.50;7.43;;;3.20;99.90;;;;;;5004455;28;20554;-62
2023/02/25 06:56:29;;;;;;;14.13;6.70;;;3.20;99.90;;;;;;5002988;28;20319;-60
2023/02/25 06:58:57;;;;;;;12.30;7.47;;;3.10;99.90;;;;;;5006143;28;20459;-61
2023/02/25 07:01:24;;;;;;;16.50;7.57;;;3.10;99.90;;;;;;5006787;28;20486;-62
2023/02/25 07:03:49;;;;;;;12.10;6.73;;;3.10;99.90;;;;;;5003127;28;20519;-61
2023/02/25 07:06:16;;;;;;;13.37;7.20;;;3.10;99.90;;;;;;5004894;28;20428;-62
2023/02/25 07:08:43;;;;;;;10.63;7.37;;;3.10;99.90;;;;;;5007632;28;20192;-60
2023/02/25 07:11:18;;;;;;;11.60;7.37;;;3.10;99.90;;;;;;5006840;28;20447;-61
2023/02/25 07:13:45;;;;;;;12.43;7.30;;;3.10;99.90;;;;;;5004409;28;20541;-60
2023/02/25 07:16:12;;;;;;;11.07;7.30;;;3.10;99.90;;;;;;5009005;28;20431;-60
2023/02/25 07:18:39;;;;;;;13.40;7.40;;;3.10;99.90;;;;;;5005455;28;20473;-64
2023/02/25 07:21:05;;;;;;;12.40;7.60;;;3.10;99.90;;;;;;5003229;28;20446;-60
2023/02/25 07:23:30;;;;;;;13.43;7.70;;;3.10;99.90;;;;;;5008021;28;20455;-60
2023/02/25 07:25:56;;;;;;;10.47;7.20;;;3.10;99.90;;;;;;5007376;28;20705;-61
2023/02/25 07:28:22;;;;;;;13.70;7.07;;;3.10;99.90;;;;;;5007340;28;20559;-58
2023/02/25 07:30:47;;;;;;;11.80;6.80;;;3.10;99.90;;;;;;5009219;28;20180;-60
2023/02/25 07:33:13;;;;;;;15.00;7.43;;;3.20;99.90;;;;;;5013511;28;20289;-61
2023/02/25 07:35:38;;;;;;;12.30;6.57;;;3.20;99.90;;;;;;5006197;28;20194;-60
2023/02/25 07:38:04;;;;;;;10.67;7.30;;;3.20;99.90;;;;;;5010843;28;20195;-60
2023/02/25 07:40:30;;;;;;;15.83;7.23;;;3.20;99.90;;;;;;5003649;28;20203;-61
2023/02/25 07:42:55;;;;;;;13.80;6.60;;;3.30;99.90;;;;;;5001259;28;20735;-60
2023/02/25 07:45:21;;;;;;;9.80;5.73;;;3.30;98.90;;;;;;4991870;28;20189;-62
2023/02/25 07:47:47;;;;;;;9.00;5.80;;;3.20;97.80;;;;;;4997584;28;20173;-60
2023/02/25 07:50:13;;;;;;;11.40;5.73;;;3.20;97.70;;;;;;5009397;28;20946;-60
2023/02/25 07:52:38;;;;;;;12.73;5.63;;;3.20;94.40;;;;;;5007213;28;20197;-61
2023/02/25 07:55:05;;;;;;;8.83;5.73;;;3.20;93.90;;;;;;5001930;28;20671;-60
2023/02/25 07:57:31;;;;;;;10.83;5.77;;;3.20;94.30;;;;;;5007301;28;20206;-60
2023/02/25 07:59:57;;;;;;;10.50;6.33;;;3.20;93.40;;;;;;5011751;28;20463;-61
2023/02/25 08:02:24;;;;;;;10.00;5.40;;;3.30;94.40;;;;;;5008698;28;20939;-60
2023/02/25 08:04:50;;;;;;;6.93;4.80;;;3.30;92.80;;;;;;5002212;28;20450;-61
2023/02/25 08:07:15;;;;;;;10.97;5.30;;;3.30;92.20;;;;;;5009021;28;20454;-59
2023/02/25 08:09:41;;;;;;;9.00;4.90;;;3.30;90.10;;;;;;5009354;28;20658;-60
2023/02/25 08:12:07;;;;;;;9.30;5.13;;;3.30;88.60;;;;;;5002336;28;20192;-62
2023/02/25 08:14:33;;;;;;;8.30;3.93;;;3.30;89.10;;;;;;5001600;28;20463;-57
2023/02/25 08:17:00;;;;;;;9.00;4.33;;;3.30;84.90;;;;;;5010893;28;20812;-58
2023/02/25 08:19:26;;;;;;;7.90;4.40;;;3.30;80.80;;;;;;5010390;28;20526;-57
2023/02/25 08:21:53;;;;;;;10.50;4.67;;;3.30;83.80;;;;;;5004418;28;20444;-58
2023/02/25 08:24:19;;;;;;;8.53;4.40;;;3.30;86.80;;;;;;5012548;28;20534;-57
2023/02/25 08:26:46;;;;;;;8.33;3.97;;;3.30;90.40;;;;;;5006890;28;20435;-61
2023/02/25 08:29:12;;;;;;;9.33;4.70;;;3.40;92.60;;;;;;4990057;28;20432;-60
2023/02/25 08:31:37;;;;;;;8.10;4.77;;;3.40;91.90;;;;;;4988913;28;20446;-60
2023/02/25 08:34:03;;;;;;;9.53;5.10;;;3.40;91.00;;;;;;4995660;28;20200;-60
2023/02/25 08:36:30;;;;;;;9.23;5.40;;;3.50;90.00;;;;;;4998330;28;20216;-61
2023/02/25 08:38:58;;;;;;;9.03;4.50;;;3.50;88.70;;;;;;4991505;28;22188;-61
2023/02/25 08:41:25;;;;;;;10.73;4.83;;;3.50;89.10;;;;;;5001620;28;20444;-61
2023/02/25 08:43:53;;;;;;;10.20;4.07;;;3.60;90.50;;;;;;5002303;28;20455;-62
2023/02/25 08:46:21;;;;;;;5.30;3.63;;;3.60;87.60;;;;;;4998098;28;20463;-60
2023/02/25 08:48:48;;;;;;;5.40;3.67;;;3.60;86.10;;;;;;4996509;28;20451;-61
2023/02/25 08:51:14;;;;;;;5.63;3.80;;;3.60;85.20;;;;;;4999228;28;20450;-62
2023/02/25 08:53:40;;;;;;;5.83;3.70;;;3.70;82.60;;;;;;5007325;28;20463;-62
2023/02/25 08:56:08;;;;;;;7.60;4.13;;;3.80;85.30;;;;;;5002145;28;20204;-62
2023/02/25 08:58:34;;;;;;;11.00;4.20;;;3.90;84.80;;;;;;5003011;28;20203;-61
2023/02/25 09:01:00;;;;;;;7.83;3.93;;;4.00;79.80;;;;;;5001144;28;20964;-62
2023/02/25 09:03:25;;;;;;;9.70;4.23;;;4.10;75.20;;;;;;5001938;28;20480;-61
2023/02/25 09:05:55;;;;;;;6.70;4.00;;;4.10;74.00;;;;;;4999463;28;20459;-61
2023/02/25 09:08:20;;;;;;;5.80;3.40;;;4.10;76.40;;;;;;5003565;28;20187;-62
2023/02/25 09:10:46;;;;;;;7.60;4.20;;;4.10;74.10;;;;;;5007228;28;20439;-62
2023/02/25 09:13:13;;;;;;;6.20;3.60;;;4.20;72.90;;;;;;5002556;28;20222;-62
2023/02/25 09:15:39;;;;;;;8.37;3.80;;;4.30;73.90;;;;;;5007132;28;20442;-62
2023/02/25 09:18:05;;;;;;;4.30;3.33;;;4.40;73.40;;;;;;4988284;28;20447;-62
2023/02/25 09:20:30;;;;;;;6.73;3.63;;;4.50;70.30;;;;;;4999952;28;20431;-60
2023/02/25 09:22:58;;;;;;;5.07;3.10;;;4.40;68.80;;;;;;4993709;28;20200;-61
2023/02/25 09:25:24;;;;;;;6.67;3.63;;;4.40;68.30;;;;;;4999960;28;20180;-61
2023/02/25 09:27:50;;;;;;;8.03;3.30;;;4.30;68.40;;;;;;5004937;28;20424;-61
2023/02/25 09:30:16;;;;;;;5.43;3.27;;;4.30;68.40;;;;;;5002641;28;20442;-60
2023/02/25 09:32:44;;;;;;;7.13;3.43;;;4.40;67.30;;;;;;5001588;28;20605;-61
2023/02/25 09:35:11;;;;;;;5.17;3.20;;;4.50;66.70;;;;;;5003651;28;20617;-61
2023/02/25 09:37:37;;;;;;;5.13;3.00;;;4.50;66.40;;;;;;5004184;28;20479;-61
2023/02/25 09:40:03;;;;;;;8.40;3.63;;;4.50;66.20;;;;;;4999113;28;20502;-63
2023/02/25 09:42:45;;;;;;;6.00;3.20;;;4.50;65.70;;;;;;4995591;28;20185;-63
2023/02/25 09:45:16;;;;;;;10.50;3.37;;;4.50;64.70;;;;;;4990544;28;20792;-62
2023/02/25 09:47:49;;;;;;;10.80;4.20;;;4.50;64.80;;;;;;5000710;28;20942;-59
2023/02/25 09:50:35;;;;;;;6.47;2.97;;;4.50;64.70;;;;;;4995587;28;20479;-62
2023/02/25 09:53:15;;;;;;;11.23;3.40;;;4.40;64.30;;;;;;4993920;28;20469;-65
2023/02/25 09:55:44;;;;;;;4.40;2.87;;;4.40;63.30;;;;;;4994246;28;20453;-64
2023/02/25 09:58:10;;;;;;;5.00;2.77;;;4.40;62.70;;;;;;4992952;28;20980;-61
2023/02/25 10:00:45;;;;;;;6.33;2.97;;;4.40;62.80;;;;;;4997872;28;20435;-60
2023/02/25 10:03:30;;;;;;;4.23;2.67;;;4.40;62.70;;;;;;5003510;28;20563;-60
2023/02/25 10:06:00;;;;;;;9.43;2.63;;;4.40;62.00;;;;;;4993068;28;20439;-61
2023/02/25 10:08:56;;;;;;;6.40;3.30;;;4.40;61.40;;;;;;4991845;28;20519;-61
2023/02/25 10:11:36;;;;;;;5.83;3.23;;;4.40;62.30;;;;;;4993212;28;20439;-60
2023/02/25 10:14:56;;;;;;;4.43;2.60;;;4.40;60.70;;;;;;4995382;28;20512;-60
2023/02/25 10:17:49;;;;;;;4.97;2.20;;;4.60;62.20;;;;;;4946387;28;20486;-60
2023/02/25 10:20:17;;;;;;;5.40;3.10;;;4.80;61.90;;;;;;4993718;28;20467;-61
2023/02/25 10:22:45;;;;;;;7.17;3.13;;;4.90;59.60;;;;;;5000176;28;21890;-60
2023/02/25 10:25:16;;;;;;;10.57;2.83;;;4.90;58.30;;;;;;4999987;28;20436;-61
2023/02/25 10:28:06;;;;;;;5.80;2.97;;;4.90;58.20;;;;;;4997555;28;20446;-61
2023/02/25 10:30:56;;;;;;;5.27;2.70;;;4.80;57.90;;;;;;4988696;28;20440;-59
2023/02/25 10:33:25;;;;;;;9.73;3.23;;;4.70;58.00;;;;;;4989012;28;20455;-61
2023/02/25 10:36:04;;;;;;;5.10;3.50;;;4.60;58.10;;;;;;4992111;28;20450;-60
2023/02/25 10:38:30;;;;;;;6.30;3.27;;;4.50;58.60;;;;;;4991333;28;20455;-60
2023/02/25 10:40:57;;;;;;;7.07;3.23;;;4.40;59.70;;;;;;5001525;28;21296;-60
2023/02/25 10:43:26;;;;;;;5.20;2.87;;;4.40;59.90;;;;;;5003611;28;20259;-61
2023/02/25 10:46:01;;;;;;;11.63;4.77;;;4.30;60.50;;;;;;5001097;28;20505;-61
2023/02/25 10:48:28;;;;;;;7.97;2.90;;;4.20;60.30;;;;;;5001996;28;20449;-60
2023/02/25 10:51:14;;;;;;;13.23;3.43;;;4.20;59.80;;;;;;4999701;28;20447;-60
2023/02/25 10:54:05;;;;;;;3.83;2.53;;;4.20;59.50;;;;;;5007867;28;20467;-60
2023/02/25 10:56:41;;;;;;;9.50;3.13;;;4.20;58.30;;;;;;5003755;28;20494;-60
2023/02/25 10:59:38;;;;;;;2.43;2.23;;;4.40;58.90;;;;;;4999253;28;20466;-61
2023/02/25 11:02:24;;;;;;;5.77;3.13;;;4.70;57.40;;;;;;5005368;28;20959;-60
2023/02/25 11:04:51;;;;;;;7.23;2.80;;;4.90;57.60;;;;;;5008838;28;20975;-61
2023/02/25 11:07:27;;;;;;;6.57;2.73;;;4.90;56.40;;;;;;5003672;28;20513;-61
2023/02/25 11:10:17;;;;;;;4.97;3.30;;;4.90;56.60;;;;;;5008178;28;20553;-60
2023/02/25 11:12:51;;;;;;;5.53;2.50;;;4.90;58.00;;;;;;5006742;28;21005;-60
2023/02/25 11:15:20;;;;;;;4.00;2.60;;;4.90;56.10;;;;;;4999492;28;20432;-61
2023/02/25 11:17:46;;;;;;;5.50;3.10;;;4.80;56.30;;;;;;5002980;28;20442;-60
2023/02/25 11:20:31;;;;;;;2.87;2.20;;;4.80;56.30;;;;;;5005580;28;20470;-61
2023/02/25 11:22:58;;;;;;;6.63;2.47;;;4.70;55.60;;;;;;5002298;28;20437;-61
2023/02/25 11:25:40;;;;;;;9.00;3.57;;;4.70;56.00;;;;;;4990922;28;20440;-61
2023/02/25 11:28:16;;;;;;;7.60;3.60;;;4.90;56.30;;;;;;5020991;28;20423;-60
2023/02/25 11:30:43;;;;;;;6.80;2.70;;;5.20;56.90;;;;;;4996596;28;20446;-60
2023/02/25 11:33:38;;;;;;;2.77;2.23;;;5.30;54.70;;;;;;5001201;28;20570;-60
2023/02/25 11:36:05;;;;;;;5.40;2.53;;;5.20;55.20;;;;;;5000369;28;20493;-60
2023/02/25 11:38:41;;;;;;;4.30;2.63;;;5.10;54.90;;;;;;5005686;28;20979;-60
2023/02/25 11:41:16;;;;;;;5.63;2.73;;;5.10;56.00;;;;;;4999682;28;20422;-60
2023/02/25 11:43:42;;;;;;;4.33;2.20;;;5.10;56.00;;;;;;5002347;28;20450;-60
2023/02/25 11:46:16;;;;;;;5.70;2.03;;;5.10;54.30;;;;;;5005768;28;20428;-61
2023/02/25 11:48:50;;;;;;;6.03;2.33;;;5.10;54.50;;;;;;4983569;28;20184;-60
2023/02/25 11:51:45;;;;;;;7.63;2.70;;;5.00;55.00;;;;;;4989130;28;20431;-62
2023/02/25 11:54:29;;;;;;;4.20;2.10;;;5.00;55.50;;;;;;4998775;28;20497;-60
2023/02/25 11:57:13;;;;;;;5.07;2.40;;;5.00;54.40;;;;;;5003396;28;21054;-61
2023/02/25 12:00:00;;;;;;;9.73;2.50;;;5.00;52.20;;;;;;4999239;28;20455;-60
2023/02/25 12:02:58;;;;;;;2.63;1.80;;;5.20;51.60;;;;;;4998204;28;20459;-60
2023/02/25 12:05:26;;;;;;;4.13;2.17;;;5.30;50.00;;;;;;4995606;28;20956;-60
2023/02/25 12:08:24;;;;;;;4.70;2.50;;;5.20;49.80;;;;;;5000705;28;21826;-60
2023/02/25 12:11:34;;;;;;;5.57;2.40;;;5.10;51.50;;;;;;5001545;28;20770;-60
2023/02/25 12:14:22;;;;;;;4.43;2.40;;;5.00;53.00;;;;;;4998755;28;20576;-60
2023/02/25 12:16:54;;;;;;;3.87;3.07;;;5.00;54.20;;;;;;4997186;28;20451;-59
2023/02/25 12:19:32;;;;;;;4.03;2.47;;;5.00;54.20;;;;;;5005529;28;20466;-61
2023/02/25 12:22:15;;;;;;;4.77;2.63;;;4.90;55.20;;;;;;4994872;28;20435;-58
2023/02/25 12:24:53;;;;;;;4.30;2.30;;;4.80;55.30;;;;;;4992451;28;20455;-61
2023/02/25 12:27:35;;;;;;;3.07;2.23;;;4.80;55.40;;;;;;5000830;28;20416;-60
2023/02/25 12:30:19;;;;;;;5.17;2.50;;;4.90;56.00;;;;;;5017071;28;20527;-61
2023/02/25 12:33:03;;;;;;;3.50;2.80;;;4.90;55.40;;;;;;5009458;28;20465;-60
2023/02/25 12:36:02;;;;;;;6.60;2.20;;;4.80;55.10;;;;;;5007739;28;20447;-60
2023/02/25 12:39:05;;;;;;;4.33;2.40;;;4.90;54.70;;;;;;5014967;28;20455;-60
2023/02/25 12:41:44;;;;;;;6.73;2.83;;;4.90;53.70;;;;;;5005164;28;20474;-60
2023/02/25 12:44:19;;;;;;;3.93;2.27;;;5.00;53.30;;;;;;5007905;28;20534;-60
2023/02/25 12:47:16;;;;;;;6.53;2.57;;;5.20;51.60;;;;;;5005999;28;21057;-60
2023/02/25 12:49:59;;;;;;;4.70;2.40;;;5.10;51.10;;;;;;5007650;28;20435;-60
2023/02/25 12:52:52;;;;;;;3.13;2.80;;;4.90;52.90;;;;;;5004084;28;20461;-59
2023/02/25 12:55:44;;;;;;;6.50;2.90;;;4.80;53.50;;;;;;5008251;28;20435;-61
2023/02/25 12:58:22;;;;;;;7.17;3.20;;;4.50;53.90;;;;;;4994231;28;20455;-60
2023/02/25 13:01:09;;;;;;;8.00;2.87;;;4.40;54.60;;;;;;5005574;28;20439;-60
2023/02/25 13:03:54;;;;;;;5.27;2.50;;;4.20;54.80;;;;;;5008621;28;20451;-61
2023/02/25 13:06:25;;;;;;;7.33;2.50;;;4.20;54.10;;;;;;5016797;28;20418;-61
2023/02/25 13:09:06;;;;;;;7.27;2.50;;;4.20;55.00;;;;;;5004333;28;20947;-60
2023/02/25 13:11:45;;;;;;;5.53;2.60;;;4.20;55.10;;;;;;5005913;28;20419;-60